Time;durP1;ratioP1;P1;durP2;ratioP2;P2;SDS_P1;SDS_P2;PMS_P1;PMS_P2;Temp;Humidity;BMP_temperature;BMP_pressure;BME280_temperature;BME280_humidity;BME280_pressure;Samples;Min_cycle;Max_cycle;Signal;HPM_P1;HPM_P2
2024/03/14 00:00:16;;;;;;;3.13;2.60;;;12.10;99.90;;;;;;4986037;28;20615;-74
2024/03/14 00:02:43;;;;;;;3.03;2.20;;;12.10;99.90;;;;;;4972499;28;20520;-74
2024/03/14 00:05:09;;;;;;;3.20;2.77;;;12.20;99.90;;;;;;4988436;28;20481;-75
2024/03/14 00:07:35;;;;;;;2.53;2.00;;;12.20;99.90;;;;;;4987120;28;21085;-75
2024/03/14 00:10:01;;;;;;;5.40;2.57;;;12.20;99.90;;;;;;4988079;28;20499;-74
2024/03/14 00:12:28;;;;;;;3.30;2.50;;;12.20;99.90;;;;;;4982586;28;20476;-74
2024/03/14 00:14:53;;;;;;;2.90;2.27;;;12.20;99.90;;;;;;4964858;28;20462;-75
2024/03/14 00:17:19;;;;;;;4.97;2.53;;;12.20;99.90;;;;;;4980849;28;20240;-74
2024/03/14 00:19:47;;;;;;;2.50;2.03;;;12.20;99.90;;;;;;4984223;28;20228;-75
2024/03/14 00:22:14;;;;;;;2.73;2.43;;;12.20;99.90;;;;;;4986444;28;20226;-75
2024/03/14 00:24:41;;;;;;;4.30;2.70;;;12.20;99.90;;;;;;4988011;28;20461;-75
2024/03/14 00:27:07;;;;;;;8.00;3.60;;;12.20;99.90;;;;;;4968823;28;20464;-75
2024/03/14 00:29:33;;;;;;;5.73;3.27;;;12.20;99.90;;;;;;4970518;28;20977;-75
2024/03/14 00:32:03;;;;;;;4.47;3.80;;;12.20;99.90;;;;;;4973472;28;20569;-75
2024/03/14 00:34:29;;;;;;;5.43;3.40;;;12.20;99.90;;;;;;4972976;28;20464;-73
2024/03/14 00:36:56;;;;;;;3.90;3.50;;;12.20;99.90;;;;;;4989017;28;20453;-75
2024/03/14 00:39:21;;;;;;;4.47;3.10;;;12.20;99.90;;;;;;4992300;28;20507;-75
2024/03/14 00:41:49;;;;;;;3.47;2.50;;;12.10;99.90;;;;;;4986731;28;20449;-75
2024/03/14 00:44:15;;;;;;;4.83;3.10;;;12.10;99.90;;;;;;4986594;28;20219;-75
2024/03/14 00:46:40;;;;;;;4.93;3.13;;;12.10;99.90;;;;;;4975455;28;20856;-76
2024/03/14 00:49:07;;;;;;;5.30;2.77;;;12.10;99.90;;;;;;4969688;28;20640;-74
2024/03/14 00:51:33;;;;;;;5.13;2.40;;;12.10;99.90;;;;;;4975162;28;20214;-74
2024/03/14 00:54:01;;;;;;;4.53;2.80;;;12.10;99.90;;;;;;4975238;28;20519;-75
2024/03/14 00:56:28;;;;;;;4.47;2.93;;;12.10;99.90;;;;;;4972082;28;20453;-73
2024/03/14 00:58:55;;;;;;;4.50;2.50;;;12.10;99.90;;;;;;4985517;28;20457;-74
2024/03/14 01:01:24;;;;;;;3.97;2.50;;;12.00;99.90;;;;;;4989638;28;20457;-73
2024/03/14 01:03:51;;;;;;;2.73;2.33;;;12.00;99.90;;;;;;4988525;28;20882;-74
2024/03/14 01:06:16;;;;;;;3.50;2.40;;;12.00;99.90;;;;;;4985239;28;20453;-74
2024/03/14 01:08:42;;;;;;;4.70;2.50;;;12.00;99.90;;;;;;4988081;28;20495;-74
2024/03/14 01:11:08;;;;;;;3.10;2.50;;;12.00;99.90;;;;;;4985946;28;20218;-74
2024/03/14 01:13:34;;;;;;;3.20;2.30;;;12.00;99.90;;;;;;4988276;28;20222;-75
2024/03/14 01:16:00;;;;;;;2.57;2.00;;;12.00;99.90;;;;;;4988925;28;20629;-74
2024/03/14 01:18:25;;;;;;;5.10;2.67;;;12.00;99.90;;;;;;4993133;28;20453;-75
2024/03/14 01:20:51;;;;;;;2.73;2.53;;;12.00;99.90;;;;;;4991778;28;20240;-75
2024/03/14 01:23:17;;;;;;;3.73;2.53;;;12.00;99.90;;;;;;4987245;28;20490;-74
2024/03/14 01:25:44;;;;;;;3.00;2.40;;;12.00;99.90;;;;;;4990027;28;20264;-74
2024/03/14 01:28:10;;;;;;;4.57;3.30;;;11.90;99.90;;;;;;4991513;28;20313;-75
2024/03/14 01:30:37;;;;;;;2.63;2.40;;;11.90;99.90;;;;;;4987922;28;20473;-74
2024/03/14 01:33:04;;;;;;;2.53;2.23;;;11.90;99.90;;;;;;4974756;28;20463;-74
2024/03/14 01:35:29;;;;;;;4.80;2.57;;;11.90;99.90;;;;;;4987775;28;20500;-75
2024/03/14 01:37:55;;;;;;;3.13;2.80;;;11.90;99.90;;;;;;4977152;28;20485;-75
2024/03/14 01:40:21;;;;;;;2.53;2.20;;;11.90;99.90;;;;;;4991257;28;20743;-74
2024/03/14 01:42:54;;;;;;;3.00;2.17;;;11.90;99.90;;;;;;4973468;28;20551;-74
2024/03/14 01:45:20;;;;;;;2.37;2.17;;;11.80;99.90;;;;;;4990138;28;20477;-75
2024/03/14 01:47:48;;;;;;;2.30;2.10;;;11.80;99.90;;;;;;4984494;28;20461;-74
2024/03/14 01:50:14;;;;;;;2.37;2.10;;;11.80;99.90;;;;;;4973238;28;20516;-74
2024/03/14 01:52:41;;;;;;;2.63;1.87;;;11.80;99.90;;;;;;4987973;28;21033;-75
2024/03/14 01:55:09;;;;;;;2.47;2.13;;;11.80;99.90;;;;;;4987665;28;20463;-75
2024/03/14 01:57:36;;;;;;;2.40;2.13;;;11.70;99.90;;;;;;4972428;28;20468;-74
2024/03/14 02:00:04;;;;;;;3.03;2.07;;;11.70;99.90;;;;;;4989365;28;20543;-74
2024/03/14 02:02:37;;;;;;;3.00;2.40;;;11.70;99.90;;;;;;4984334;28;20500;-75
2024/03/14 02:05:18;;;;;;;4.80;2.57;;;11.70;99.90;;;;;;4964615;28;20468;-74
2024/03/14 02:07:45;;;;;;;4.40;2.13;;;11.60;99.90;;;;;;4980078;28;20471;-74
2024/03/14 02:10:14;;;;;;;4.00;2.73;;;11.60;99.90;;;;;;4959225;28;20994;-74
2024/03/14 02:12:40;;;;;;;1.83;1.73;;;11.60;99.90;;;;;;4967922;28;20503;-74
2024/03/14 02:15:08;;;;;;;2.10;1.90;;;11.60;99.90;;;;;;4988714;28;20472;-75
2024/03/14 02:17:34;;;;;;;2.17;1.60;;;11.60;99.90;;;;;;4987848;28;20523;-75
2024/03/14 02:20:00;;;;;;;4.50;2.50;;;11.50;99.90;;;;;;4973901;28;20840;-75
2024/03/14 02:22:27;;;;;;;1.80;1.70;;;11.50;99.90;;;;;;4968380;28;20460;-75
2024/03/14 02:24:53;;;;;;;4.63;3.13;;;11.50;99.90;;;;;;4990079;28;20475;-74
2024/03/14 02:27:20;;;;;;;2.37;2.17;;;11.50;99.90;;;;;;4986004;28;20499;-74
2024/03/14 02:29:45;;;;;;;2.27;1.87;;;11.50;99.90;;;;;;4983234;28;20568;-74
2024/03/14 02:32:11;;;;;;;2.63;2.40;;;11.50;99.90;;;;;;4975985;28;20533;-74
2024/03/14 02:34:37;;;;;;;5.10;2.10;;;11.40;99.90;;;;;;4987685;28;20728;-74
2024/03/14 02:37:03;;;;;;;2.67;2.40;;;11.40;99.90;;;;;;4988045;28;20276;-74
2024/03/14 02:39:31;;;;;;;2.00;1.80;;;11.40;99.90;;;;;;4966271;28;20219;-74
2024/03/14 02:42:00;;;;;;;2.30;2.10;;;11.30;99.90;;;;;;4986854;28;20236;-73
2024/03/14 02:44:26;;;;;;;2.30;2.10;;;11.30;99.90;;;;;;4973991;28;20445;-73
2024/03/14 02:46:51;;;;;;;3.80;2.20;;;11.20;99.90;;;;;;4972667;28;20466;-74
2024/03/14 02:49:21;;;;;;;8.20;4.80;;;11.10;99.90;;;;;;4976565;28;20222;-74
2024/03/14 02:51:47;;;;;;;2.30;2.10;;;11.20;99.90;;;;;;4982150;28;20218;-76
2024/03/14 02:54:16;;;;;;;3.80;2.60;;;11.10;99.90;;;;;;4983762;28;20867;-74
2024/03/14 02:56:43;;;;;;;2.23;1.90;;;11.10;99.90;;;;;;4971368;28;20488;-75
2024/03/14 02:59:13;;;;;;;3.20;2.37;;;11.00;99.90;;;;;;4986307;28;20523;-74
2024/03/14 03:01:40;;;;;;;3.57;2.27;;;11.10;99.90;;;;;;4984303;28;20477;-74
2024/03/14 03:04:06;;;;;;;2.60;2.00;;;11.10;99.90;;;;;;4970431;28;20454;-75
2024/03/14 03:06:33;;;;;;;2.60;2.27;;;11.10;99.90;;;;;;4987303;28;20469;-74
2024/03/14 03:08:59;;;;;;;3.23;1.90;;;11.10;99.90;;;;;;4956105;28;20245;-75
2024/03/14 03:11:26;;;;;;;6.73;2.73;;;11.10;99.90;;;;;;4980654;28;20504;-74
2024/03/14 03:13:51;;;;;;;3.80;2.17;;;11.10;99.90;;;;;;4974489;28;20464;-75
2024/03/14 03:16:17;;;;;;;4.33;2.33;;;11.00;99.90;;;;;;4968175;28;20465;-74
2024/03/14 03:18:42;;;;;;;2.87;2.57;;;11.00;99.90;;;;;;4965428;28;20223;-74
2024/03/14 03:21:08;;;;;;;2.80;2.50;;;11.00;99.90;;;;;;4971347;28;20815;-74
2024/03/14 03:23:34;;;;;;;2.73;2.40;;;11.00;99.90;;;;;;4976321;28;20681;-76
2024/03/14 03:25:59;;;;;;;3.37;2.30;;;11.00;99.90;;;;;;4990360;28;20686;-75
2024/03/14 03:28:26;;;;;;;4.20;2.40;;;11.00;99.90;;;;;;4967658;28;20692;-75
2024/03/14 03:30:52;;;;;;;3.90;2.30;;;10.90;99.90;;;;;;4994748;28;20221;-74
2024/03/14 03:33:20;;;;;;;2.30;2.10;;;10.90;99.90;;;;;;4984817;28;20453;-74
2024/03/14 03:35:46;;;;;;;3.50;2.80;;;10.90;99.90;;;;;;4977679;28;20488;-74
2024/03/14 03:38:15;;;;;;;3.17;2.70;;;10.80;99.90;;;;;;4970260;28;20449;-73
2024/03/14 03:40:43;;;;;;;3.00;2.50;;;10.80;99.90;;;;;;4979054;28;20469;-74
2024/03/14 03:43:09;;;;;;;2.87;2.60;;;10.80;99.90;;;;;;4953637;28;20496;-75
2024/03/14 03:45:35;;;;;;;3.50;2.60;;;10.80;99.90;;;;;;4963477;28;20469;-75
2024/03/14 03:48:01;;;;;;;6.80;2.77;;;10.80;99.90;;;;;;4952120;28;20514;-74
2024/03/14 03:50:27;;;;;;;3.43;2.30;;;10.80;99.90;;;;;;4979077;28;20950;-75
2024/03/14 03:52:53;;;;;;;2.63;2.23;;;10.80;99.90;;;;;;4977697;28;20272;-75
2024/03/14 03:55:19;;;;;;;2.77;2.37;;;10.80;99.90;;;;;;4966824;28;20886;-74
2024/03/14 03:57:46;;;;;;;3.00;2.50;;;10.80;99.90;;;;;;4966148;28;20465;-73
2024/03/14 04:00:33;;;;;;;7.33;2.70;;;10.80;99.90;;;;;;4983781;28;20568;-74
2024/03/14 04:02:59;;;;;;;2.43;2.13;;;10.80;99.90;;;;;;4982919;28;20541;-74
2024/03/14 04:05:25;;;;;;;4.17;2.67;;;10.70;99.90;;;;;;4984383;28;20473;-75
2024/03/14 04:07:55;;;;;;;4.80;2.50;;;10.70;99.90;;;;;;4981766;28;20557;-75
2024/03/14 04:10:27;;;;;;;4.23;2.90;;;10.70;99.90;;;;;;4977710;28;20488;-74
2024/03/14 04:12:56;;;;;;;2.87;2.30;;;10.60;99.90;;;;;;4977693;28;20551;-75
2024/03/14 04:15:22;;;;;;;7.27;2.53;;;10.60;99.90;;;;;;4966915;28;20461;-75
2024/03/14 04:17:49;;;;;;;2.80;2.57;;;10.60;99.90;;;;;;4963192;28;20971;-75
2024/03/14 04:20:15;;;;;;;3.67;2.50;;;10.60;99.90;;;;;;4983875;28;20233;-74
2024/03/14 04:22:41;;;;;;;5.47;2.90;;;10.60;99.90;;;;;;4961693;28;20471;-74
2024/03/14 04:25:11;;;;;;;4.03;2.70;;;10.60;99.90;;;;;;4980443;28;20537;-75
2024/03/14 04:27:42;;;;;;;3.93;3.00;;;10.50;99.90;;;;;;4981540;28;20245;-76
2024/03/14 04:30:17;;;;;;;4.20;3.00;;;10.60;99.90;;;;;;4985430;28;20469;-74
2024/03/14 04:32:45;;;;;;;4.10;2.57;;;10.50;99.90;;;;;;4966981;28;20467;-75
2024/03/14 04:35:11;;;;;;;3.60;2.73;;;10.50;99.90;;;;;;4965702;28;20465;-75
2024/03/14 04:37:40;;;;;;;3.23;2.90;;;10.50;99.90;;;;;;4982876;28;20464;-75
2024/03/14 04:40:13;;;;;;;5.90;2.77;;;10.40;99.90;;;;;;4985743;28;20710;-74
2024/03/14 04:42:42;;;;;;;5.70;3.50;;;10.40;99.90;;;;;;4980849;28;20514;-73
2024/03/14 04:45:12;;;;;;;3.10;2.80;;;10.40;99.90;;;;;;4964206;28;20486;-74
2024/03/14 04:47:39;;;;;;;3.27;2.97;;;10.30;99.90;;;;;;4979758;28;21029;-75
2024/03/14 04:50:10;;;;;;;2.73;2.50;;;10.10;99.90;;;;;;4984283;28;20464;-74
2024/03/14 04:52:39;;;;;;;3.47;2.70;;;10.10;99.90;;;;;;4978820;28;20470;-75
2024/03/14 04:55:08;;;;;;;3.20;2.37;;;10.00;99.90;;;;;;4971269;28;20456;-74
2024/03/14 04:57:34;;;;;;;3.20;2.87;;;10.00;99.90;;;;;;4987511;28;20500;-74
2024/03/14 05:00:01;;;;;;;3.00;2.63;;;10.00;99.90;;;;;;4984895;28;20830;-75
2024/03/14 05:02:29;;;;;;;3.10;2.50;;;10.10;99.90;;;;;;4979127;28;21041;-74
2024/03/14 05:04:56;;;;;;;4.83;3.10;;;10.10;99.90;;;;;;4964835;28;20519;-75
2024/03/14 05:07:25;;;;;;;15.70;3.10;;;10.10;99.90;;;;;;4964366;28;20840;-75
2024/03/14 05:09:51;;;;;;;3.33;2.80;;;10.10;99.90;;;;;;4967235;28;20461;-75
2024/03/14 05:12:18;;;;;;;3.80;2.93;;;10.10;99.90;;;;;;4966143;28;20461;-75
2024/03/14 05:14:43;;;;;;;4.10;3.20;;;10.00;99.90;;;;;;4965366;28;20509;-74
2024/03/14 05:17:12;;;;;;;2.83;2.63;;;10.00;99.90;;;;;;4966334;28;20457;-75
2024/03/14 05:19:38;;;;;;;3.30;3.00;;;10.10;99.90;;;;;;4962861;28;20244;-74
2024/03/14 05:22:04;;;;;;;6.60;3.40;;;10.10;99.90;;;;;;4978972;28;21129;-76
2024/03/14 05:24:30;;;;;;;4.70;3.70;;;10.10;99.90;;;;;;4980031;28;20261;-75
2024/03/14 05:26:59;;;;;;;3.83;3.13;;;10.00;99.90;;;;;;4964633;28;20461;-75
2024/03/14 05:29:25;;;;;;;5.53;2.87;;;10.00;99.90;;;;;;4962257;28;20468;-74
2024/03/14 05:31:51;;;;;;;5.40;3.43;;;10.10;99.90;;;;;;4963449;28;20460;-74
2024/03/14 05:34:17;;;;;;;7.60;3.67;;;10.10;99.90;;;;;;4986307;28;21057;-74
2024/03/14 05:36:42;;;;;;;5.60;3.77;;;10.10;99.90;;;;;;4976454;28;20214;-74
2024/03/14 05:39:09;;;;;;;7.30;3.40;;;10.10;99.90;;;;;;4982027;28;20609;-74
2024/03/14 05:41:34;;;;;;;7.87;4.20;;;10.10;99.90;;;;;;4972811;28;20229;-75
2024/03/14 05:44:00;;;;;;;3.93;3.07;;;10.10;99.90;;;;;;4988643;28;21260;-74
2024/03/14 05:46:27;;;;;;;5.90;3.03;;;10.10;99.90;;;;;;4986555;28;20241;-75
2024/03/14 05:48:53;;;;;;;5.83;3.97;;;10.10;99.90;;;;;;4986136;28;20221;-74
2024/03/14 05:51:20;;;;;;;6.97;3.30;;;10.10;99.90;;;;;;4987750;28;20985;-75
2024/03/14 05:53:45;;;;;;;10.43;4.50;;;10.00;99.90;;;;;;4966352;28;20492;-75
2024/03/14 05:56:11;;;;;;;7.73;4.10;;;10.00;99.90;;;;;;4983637;28;20493;-73
2024/03/14 05:58:37;;;;;;;5.40;3.77;;;9.90;99.90;;;;;;4967766;28;20222;-74
2024/03/14 06:01:03;;;;;;;6.10;3.60;;;9.90;99.90;;;;;;4967099;28;20262;-75
2024/03/14 06:03:29;;;;;;;6.53;4.10;;;9.90;99.90;;;;;;4971773;28;20973;-75
2024/03/14 06:05:55;;;;;;;7.73;4.73;;;9.90;99.90;;;;;;4967113;28;20447;-76
2024/03/14 06:08:21;;;;;;;7.33;4.80;;;9.90;99.90;;;;;;4963982;28;20221;-75
2024/03/14 06:10:46;;;;;;;4.70;4.17;;;9.90;99.90;;;;;;4985454;28;20218;-75
2024/03/14 06:13:12;;;;;;;6.23;4.20;;;9.90;99.90;;;;;;4986585;28;20229;-75
2024/03/14 06:15:38;;;;;;;7.67;4.03;;;9.90;99.90;;;;;;4981415;28;20225;-75
2024/03/14 06:18:05;;;;;;;6.50;3.73;;;9.80;99.90;;;;;;4966890;28;20217;-75
2024/03/14 06:20:31;;;;;;;4.93;4.07;;;9.80;99.90;;;;;;4987032;28;20539;-76
2024/03/14 06:23:00;;;;;;;8.17;3.57;;;9.80;99.90;;;;;;4982209;28;20560;-75
2024/03/14 06:25:26;;;;;;;6.00;4.60;;;9.70;99.90;;;;;;4983097;28;20469;-76
2024/03/14 06:27:52;;;;;;;8.50;4.43;;;9.70;99.90;;;;;;4986080;28;20521;-75
2024/03/14 06:30:18;;;;;;;4.60;3.60;;;9.80;99.90;;;;;;4969652;28;20225;-74
2024/03/14 06:32:47;;;;;;;5.07;3.80;;;9.80;99.90;;;;;;4984415;28;20884;-73
2024/03/14 06:35:13;;;;;;;4.37;3.97;;;9.80;99.90;;;;;;4987458;28;20465;-75
2024/03/14 06:37:39;;;;;;;6.40;3.80;;;9.70;99.90;;;;;;4985161;28;20462;-75
2024/03/14 06:40:05;;;;;;;6.93;3.93;;;9.70;99.90;;;;;;4988626;28;20460;-76
2024/03/14 06:42:34;;;;;;;5.43;3.50;;;9.70;99.90;;;;;;4970115;28;20469;-77
2024/03/14 06:45:03;;;;;;;8.80;5.00;;;9.70;99.90;;;;;;4984709;28;20465;-76
2024/03/14 06:47:33;;;;;;;5.80;3.60;;;9.70;99.90;;;;;;4987072;28;20461;-74
2024/03/14 06:50:00;;;;;;;8.50;4.93;;;9.70;99.90;;;;;;4989388;28;20542;-75
2024/03/14 06:52:26;;;;;;;5.53;4.40;;;9.70;99.90;;;;;;4980042;28;20465;-75
2024/03/14 06:54:53;;;;;;;4.93;4.40;;;9.60;99.90;;;;;;4986359;28;20468;-75
2024/03/14 06:57:19;;;;;;;8.03;4.40;;;9.60;99.90;;;;;;4987839;28;20457;-75
2024/03/14 06:59:48;;;;;;;4.93;3.90;;;9.70;99.90;;;;;;4984303;28;20974;-74
2024/03/14 07:02:18;;;;;;;5.90;4.30;;;9.60;99.90;;;;;;4985129;28;20492;-76
2024/03/14 07:04:44;;;;;;;8.00;5.00;;;9.70;99.90;;;;;;4970687;28;20472;-76
2024/03/14 07:07:11;;;;;;;9.07;5.67;;;9.70;99.90;;;;;;4984731;28;20461;-76
2024/03/14 07:09:39;;;;;;;8.27;5.10;;;9.70;99.90;;;;;;4952097;28;20488;-76
2024/03/14 07:12:06;;;;;;;9.13;4.80;;;9.70;99.90;;;;;;4987731;28;20456;-75
2024/03/14 07:14:32;;;;;;;6.30;4.50;;;9.70;99.90;;;;;;4970925;28;20458;-76
2024/03/14 07:16:57;;;;;;;7.93;4.20;;;9.70;99.90;;;;;;4971586;28;20453;-76
2024/03/14 07:19:23;;;;;;;5.87;4.50;;;9.70;99.90;;;;;;4968850;28;20216;-76
2024/03/14 07:21:50;;;;;;;4.90;4.13;;;9.80;99.90;;;;;;4984607;28;20279;-76
2024/03/14 07:24:17;;;;;;;8.23;4.10;;;9.80;99.90;;;;;;4976879;28;20250;-76
2024/03/14 07:26:43;;;;;;;5.50;3.70;;;9.80;99.90;;;;;;4981543;28;20880;-76
2024/03/14 07:29:10;;;;;;;8.97;4.40;;;9.80;99.90;;;;;;4980291;28;20857;-75
2024/03/14 07:31:35;;;;;;;5.73;3.80;;;9.80;99.90;;;;;;4976597;28;20517;-74
2024/03/14 07:34:06;;;;;;;7.40;4.53;;;9.80;99.90;;;;;;4980323;28;20511;-76
2024/03/14 07:36:36;;;;;;;4.80;3.80;;;9.90;99.90;;;;;;4979953;28;20281;-73
2024/03/14 07:39:02;;;;;;;5.30;3.30;;;9.90;99.90;;;;;;4968158;28;20457;-75
2024/03/14 07:41:27;;;;;;;5.37;3.10;;;10.00;99.90;;;;;;4987728;28;20473;-75
2024/03/14 07:43:53;;;;;;;4.50;3.80;;;10.00;99.90;;;;;;4969412;28;20267;-75
2024/03/14 07:46:19;;;;;;;6.27;3.90;;;10.00;99.90;;;;;;4983941;28;20217;-74
2024/03/14 07:48:49;;;;;;;5.93;4.00;;;10.00;99.90;;;;;;4980843;28;20217;-75
2024/03/14 07:51:16;;;;;;;6.47;4.33;;;10.10;99.90;;;;;;4986469;28;20461;-74
2024/03/14 07:53:43;;;;;;;5.77;4.00;;;10.10;99.90;;;;;;4968251;28;20468;-75
2024/03/14 07:56:10;;;;;;;5.70;4.00;;;10.20;99.90;;;;;;4983512;28;20460;-75
2024/03/14 07:58:39;;;;;;;8.43;4.93;;;10.20;99.90;;;;;;4985111;28;20464;-76
2024/03/14 08:01:10;;;;;;;8.10;4.30;;;10.30;99.90;;;;;;4963638;28;20484;-74
2024/03/14 08:03:39;;;;;;;7.30;4.67;;;10.30;99.90;;;;;;4984103;28;20508;-75
2024/03/14 08:06:10;;;;;;;5.93;4.47;;;10.30;99.90;;;;;;4967180;28;20527;-75
2024/03/14 08:08:37;;;;;;;5.53;4.13;;;10.30;99.90;;;;;;4959165;28;20486;-75
2024/03/14 08:11:09;;;;;;;4.23;3.70;;;10.30;99.90;;;;;;4975722;28;20468;-74
2024/03/14 08:13:35;;;;;;;8.50;4.33;;;10.30;99.90;;;;;;4962585;28;20477;-74
2024/03/14 08:16:22;;;;;;;7.10;4.67;;;10.30;99.90;;;;;;4978505;28;20463;-75
2024/03/14 08:18:48;;;;;;;10.83;4.83;;;10.30;99.90;;;;;;4964923;28;20326;-75
2024/03/14 08:21:14;;;;;;;4.63;4.00;;;10.30;99.90;;;;;;4975322;28;20568;-74
2024/03/14 08:23:47;;;;;;;7.90;5.57;;;10.40;99.90;;;;;;4964310;28;20555;-75
2024/03/14 08:26:13;;;;;;;11.20;5.33;;;10.40;99.90;;;;;;4958811;28;20871;-76
2024/03/14 08:28:41;;;;;;;8.93;4.70;;;10.40;99.90;;;;;;4977333;28;20457;-75
2024/03/14 08:31:25;;;;;;;5.00;4.20;;;10.40;99.90;;;;;;4963244;28;20465;-76
2024/03/14 08:33:51;;;;;;;7.40;5.20;;;10.50;99.90;;;;;;4980852;28;20993;-75
2024/03/14 08:36:17;;;;;;;7.20;4.70;;;10.50;99.90;;;;;;4966005;28;20476;-75
2024/03/14 08:38:43;;;;;;;7.00;5.43;;;10.60;99.90;;;;;;4967454;28;20298;-75
2024/03/14 08:41:08;;;;;;;7.50;5.03;;;10.80;99.90;;;;;;4964008;28;20848;-75
2024/03/14 08:43:35;;;;;;;7.10;4.50;;;11.10;99.90;;;;;;4973421;28;20226;-75
2024/03/14 08:46:01;;;;;;;7.83;5.07;;;11.40;99.90;;;;;;4966686;28;20312;-76
2024/03/14 08:48:27;;;;;;;5.70;4.50;;;11.50;99.90;;;;;;4965575;28;20465;-75
2024/03/14 08:50:52;;;;;;;8.47;5.07;;;11.50;99.90;;;;;;4982224;28;20457;-74
2024/03/14 08:53:19;;;;;;;8.17;4.47;;;11.40;99.90;;;;;;4965898;28;20233;-75
2024/03/14 08:55:56;;;;;;;7.13;4.70;;;11.30;99.90;;;;;;4968264;28;20232;-76
2024/03/14 08:58:25;;;;;;;8.97;6.83;;;11.20;99.90;;;;;;4984349;28;21046;-75
2024/03/14 09:00:53;;;;;;;8.10;5.80;;;11.30;99.90;;;;;;4981571;28;20534;-74
2024/03/14 09:03:19;;;;;;;9.67;5.97;;;11.30;99.90;;;;;;4975194;28;20464;-75
2024/03/14 09:05:45;;;;;;;8.10;5.63;;;11.40;99.90;;;;;;4967017;28;20475;-75
2024/03/14 09:08:11;;;;;;;8.23;5.17;;;11.50;99.90;;;;;;4980318;28;20213;-75
2024/03/14 09:10:38;;;;;;;6.17;5.13;;;11.60;99.90;;;;;;4956579;28;20474;-74
2024/03/14 09:13:06;;;;;;;14.27;5.70;;;11.80;99.90;;;;;;4974359;28;20488;-75
2024/03/14 09:15:33;;;;;;;7.23;5.57;;;12.00;99.90;;;;;;4978499;28;20460;-75
2024/03/14 09:17:59;;;;;;;6.73;5.43;;;12.00;99.90;;;;;;4972741;28;20465;-75
2024/03/14 09:20:27;;;;;;;7.63;6.17;;;12.10;99.90;;;;;;4976351;28;20477;-76
2024/03/14 09:22:55;;;;;;;7.50;5.70;;;12.10;99.90;;;;;;4972660;28;20975;-76
2024/03/14 09:25:22;;;;;;;9.30;6.30;;;12.10;99.90;;;;;;4977021;28;20473;-75
2024/03/14 09:27:48;;;;;;;8.13;6.00;;;12.20;99.90;;;;;;4967007;28;20495;-74
2024/03/14 09:30:14;;;;;;;10.90;5.50;;;12.30;99.90;;;;;;4978329;28;21010;-75
2024/03/14 09:32:40;;;;;;;10.17;6.67;;;12.60;99.90;;;;;;4975600;28;20481;-76
2024/03/14 09:35:16;;;;;;;10.13;7.07;;;12.70;99.90;;;;;;4982568;28;20222;-76
2024/03/14 09:37:45;;;;;;;13.30;6.40;;;12.70;99.90;;;;;;4978683;28;20468;-77
2024/03/14 09:40:15;;;;;;;14.90;6.60;;;12.80;99.90;;;;;;4976420;28;20480;-74
2024/03/14 09:42:47;;;;;;;9.70;6.00;;;13.00;99.90;;;;;;4977062;28;20473;-76
2024/03/14 09:45:14;;;;;;;11.63;6.63;;;12.90;99.90;;;;;;4961826;28;20495;-75
2024/03/14 09:47:41;;;;;;;6.80;5.43;;;12.90;99.90;;;;;;4978482;28;20556;-76
2024/03/14 09:50:17;;;;;;;7.37;5.77;;;13.00;99.90;;;;;;4976416;28;20480;-75
2024/03/14 09:52:44;;;;;;;12.73;6.57;;;13.00;99.90;;;;;;4963503;28;20856;-76
2024/03/14 09:55:13;;;;;;;9.20;4.43;;;13.00;99.90;;;;;;4977611;28;20465;-76
2024/03/14 09:57:39;;;;;;;10.03;6.37;;;13.10;99.90;;;;;;4980077;28;20460;-76
2024/03/14 10:00:19;;;;;;;10.23;6.37;;;12.90;99.90;;;;;;4969645;28;20921;-75
2024/03/14 10:02:50;;;;;;;8.00;4.77;;;12.90;99.90;;;;;;4984162;28;20469;-75
2024/03/14 10:05:19;;;;;;;9.47;5.30;;;13.00;99.90;;;;;;4975477;28;20457;-77
2024/03/14 10:07:46;;;;;;;7.03;5.27;;;13.00;99.90;;;;;;4985256;28;20465;-77
2024/03/14 10:10:13;;;;;;;5.53;4.97;;;13.20;99.90;;;;;;4984311;28;20453;-77
2024/03/14 10:12:48;;;;;;;13.10;4.77;;;13.40;99.90;;;;;;4971725;28;20500;-76
2024/03/14 10:15:13;;;;;;;7.30;4.63;;;13.60;99.90;;;;;;4969170;28;21063;-77
2024/03/14 10:17:41;;;;;;;9.47;6.10;;;14.00;99.90;;;;;;4983892;28;20464;-76
2024/03/14 10:20:13;;;;;;;5.33;4.40;;;14.30;99.90;;;;;;4988918;28;20238;-75
2024/03/14 10:22:39;;;;;;;8.80;4.07;;;14.50;99.90;;;;;;4986519;28;20509;-76
2024/03/14 10:25:38;;;;;;;8.40;4.03;;;14.70;99.90;;;;;;4985183;28;20815;-75
2024/03/14 10:28:05;;;;;;;6.13;3.73;;;14.80;99.90;;;;;;4982615;28;20456;-77
2024/03/14 10:30:33;;;;;;;4.30;3.90;;;14.80;99.90;;;;;;4982923;28;20477;-76
2024/03/14 10:32:59;;;;;;;5.83;4.00;;;15.00;99.90;;;;;;4985077;28;20461;-77
2024/03/14 10:35:26;;;;;;;11.50;4.10;;;15.20;99.90;;;;;;4979973;28;20459;-76
2024/03/14 10:37:59;;;;;;;6.10;3.53;;;15.40;99.90;;;;;;4969900;28;20896;-76
2024/03/14 10:40:30;;;;;;;5.07;3.83;;;15.50;99.90;;;;;;4990722;28;20544;-76
2024/03/14 10:42:57;;;;;;;5.20;3.57;;;15.70;99.90;;;;;;4985661;28;20464;-74
2024/03/14 10:45:24;;;;;;;9.00;4.93;;;15.80;99.90;;;;;;4988032;28;20456;-74
2024/03/14 10:47:51;;;;;;;4.83;4.20;;;15.90;99.90;;;;;;4980511;28;20828;-76
2024/03/14 10:50:17;;;;;;;7.50;4.30;;;16.20;99.90;;;;;;4967845;28;20981;-75
2024/03/14 10:52:49;;;;;;;3.53;3.23;;;16.20;99.90;;;;;;4988723;28;20469;-76
2024/03/14 10:55:18;;;;;;;4.23;3.70;;;16.40;99.90;;;;;;4984009;28;20809;-75
2024/03/14 10:57:44;;;;;;;4.37;3.30;;;16.30;99.90;;;;;;4989213;28;20500;-76
2024/03/14 11:00:18;;;;;;;4.23;3.40;;;16.20;99.90;;;;;;4985602;28;20998;-75
2024/03/14 11:02:52;;;;;;;4.13;3.37;;;16.20;99.90;;;;;;4969498;28;20519;-77
2024/03/14 11:05:18;;;;;;;3.87;3.50;;;16.10;99.90;;;;;;4982397;28;20450;-77
2024/03/14 11:07:46;;;;;;;6.67;4.33;;;16.00;99.90;;;;;;4965934;28;20490;-77
2024/03/14 11:10:28;;;;;;;4.83;4.40;;;15.80;99.90;;;;;;4966294;28;20978;-76
2024/03/14 11:13:05;;;;;;;6.00;3.60;;;15.90;99.90;;;;;;4969074;28;20464;-76
2024/03/14 11:15:36;;;;;;;6.10;3.87;;;16.30;99.90;;;;;;4987591;28;20527;-76
2024/03/14 11:18:05;;;;;;;3.67;3.13;;;16.50;99.90;;;;;;4970886;28;20495;-76
2024/03/14 11:20:36;;;;;;;4.00;3.60;;;16.50;99.90;;;;;;4983724;28;20483;-77
2024/03/14 11:23:09;;;;;;;8.87;3.90;;;16.70;99.90;;;;;;4966082;28;20499;-77
2024/03/14 11:25:38;;;;;;;5.10;3.73;;;16.80;99.90;;;;;;4980951;28;20453;-77
2024/03/14 11:28:06;;;;;;;5.17;3.23;;;16.80;99.90;;;;;;4987286;28;20449;-76
2024/03/14 11:30:32;;;;;;;5.80;3.57;;;16.80;99.90;;;;;;4989301;28;20516;-77
2024/03/14 11:33:06;;;;;;;5.67;4.40;;;16.70;99.90;;;;;;4984626;28;21056;-76
2024/03/14 11:35:36;;;;;;;3.40;3.10;;;16.60;99.90;;;;;;4973109;28;20800;-75
2024/03/14 11:38:22;;;;;;;5.30;3.40;;;16.40;99.90;;;;;;4985670;28;20820;-76
2024/03/14 11:40:55;;;;;;;4.87;4.10;;;16.40;99.90;;;;;;4986011;28;20563;-76
2024/03/14 11:43:26;;;;;;;4.80;4.20;;;16.40;99.90;;;;;;4981208;28;20453;-76
2024/03/14 11:45:56;;;;;;;6.17;4.67;;;16.30;99.90;;;;;;4980395;28;20454;-75
2024/03/14 11:48:24;;;;;;;7.97;5.03;;;16.30;99.90;;;;;;4979172;28;20963;-76
2024/03/14 11:50:58;;;;;;;7.87;5.20;;;16.20;99.90;;;;;;4983477;28;20491;-75
2024/03/14 11:53:25;;;;;;;4.47;3.80;;;16.10;99.90;;;;;;4983151;28;20475;-77
2024/03/14 11:55:52;;;;;;;6.73;4.17;;;16.10;99.90;;;;;;4983396;28;20461;-77
2024/03/14 11:58:20;;;;;;;8.80;5.20;;;16.20;99.90;;;;;;4981522;28;20870;-76
2024/03/14 12:00:51;;;;;;;5.20;4.57;;;16.10;99.90;;;;;;4965397;28;20480;-75
2024/03/14 12:03:18;;;;;;;6.80;4.20;;;16.10;99.90;;;;;;4979769;28;20493;-75
2024/03/14 12:05:57;;;;;;;4.80;3.83;;;16.10;99.90;;;;;;4983553;28;20456;-76
2024/03/14 12:08:24;;;;;;;6.93;4.20;;;16.40;99.90;;;;;;4952656;28;20469;-75
2024/03/14 12:10:54;;;;;;;5.10;3.97;;;16.70;99.90;;;;;;4982096;28;20530;-75
2024/03/14 12:13:23;;;;;;;7.00;5.80;;;16.90;99.90;;;;;;4980081;28;20464;-75
2024/03/14 12:16:02;;;;;;;8.77;6.53;;;16.80;99.90;;;;;;4982450;28;20464;-74
2024/03/14 12:18:31;;;;;;;10.37;7.17;;;16.80;99.90;;;;;;4979000;28;20465;-76
2024/03/14 12:20:58;;;;;;;8.17;6.20;;;17.00;99.90;;;;;;4983990;28;20464;-77
2024/03/14 12:23:24;;;;;;;7.83;6.50;;;17.00;99.90;;;;;;4968686;28;20483;-76
2024/03/14 12:25:55;;;;;;;6.90;5.07;;;17.00;99.90;;;;;;4982030;28;20480;-77
2024/03/14 12:28:22;;;;;;;7.47;6.73;;;16.90;99.90;;;;;;4990197;28;20221;-75
2024/03/14 12:30:56;;;;;;;7.63;6.80;;;16.70;99.90;;;;;;4984427;28;20484;-76
2024/03/14 12:33:27;;;;;;;7.23;6.07;;;16.60;99.90;;;;;;4966112;28;20456;-76
2024/03/14 12:35:53;;;;;;;11.53;7.53;;;16.60;99.90;;;;;;4983442;28;20456;-76
2024/03/14 12:38:22;;;;;;;9.57;7.00;;;16.60;99.90;;;;;;4968424;28;20461;-76
2024/03/14 12:40:49;;;;;;;9.50;6.37;;;16.60;99.90;;;;;;4971687;28;20477;-77
2024/03/14 12:43:16;;;;;;;7.43;6.63;;;16.60;99.90;;;;;;4984376;28;21066;-75
2024/03/14 12:45:44;;;;;;;8.70;7.43;;;16.60;99.90;;;;;;4969607;28;20465;-76
2024/03/14 12:48:13;;;;;;;9.20;7.77;;;16.60;99.90;;;;;;4985775;28;20460;-77
2024/03/14 12:50:39;;;;;;;8.97;7.73;;;16.50;99.90;;;;;;4985832;28;20475;-75